createdAt,value
2018-04-11T00:01:54.504Z,4.40
2018-04-11T00:04:23.066Z,4.37
2018-04-11T00:06:53.033Z,5.17
2018-04-11T00:09:22.320Z,4.80
2018-04-11T00:11:50.709Z,4.37
2018-04-11T00:14:20.105Z,4.00
2018-04-11T00:16:48.479Z,4.90
2018-04-11T00:19:17.176Z,4.80
2018-04-11T00:21:45.386Z,4.37
2018-04-11T00:24:13.639Z,3.90
2018-04-11T00:26:42.709Z,3.77
2018-04-11T00:29:10.913Z,4.23
2018-04-11T00:31:39.214Z,5.20
2018-04-11T00:34:07.630Z,3.87
2018-04-11T00:36:35.841Z,4.00
2018-04-11T00:39:04.432Z,4.07
2018-04-11T00:41:32.638Z,4.10
2018-04-11T00:44:00.851Z,3.67
2018-04-11T00:46:29.115Z,4.30
2018-04-11T00:48:58.087Z,4.13
2018-04-11T00:51:26.287Z,4.90
2018-04-11T00:53:54.617Z,3.87
2018-04-11T00:56:24.007Z,5.47
2018-04-11T00:58:53.479Z,4.70
2018-04-11T01:01:24.000Z,3.97
2018-04-11T01:03:52.697Z,3.67
2018-04-11T01:06:21.181Z,4.57
2018-04-11T01:08:50.097Z,4.27
2018-04-11T01:11:19.904Z,4.70
2018-04-11T01:13:48.108Z,4.30
2018-04-11T01:16:16.323Z,4.80
2018-04-11T01:18:44.968Z,4.67
2018-04-11T01:21:13.171Z,3.80
2018-04-11T01:23:41.372Z,5.47
2018-04-11T01:26:09.777Z,5.40
2018-04-11T01:28:38.446Z,6.17
2018-04-11T01:31:07.709Z,5.80
2018-04-11T01:33:36.228Z,5.80
2018-04-11T01:36:04.640Z,6.00
2018-04-11T01:38:33.214Z,6.27
2018-04-11T01:41:01.472Z,7.00
2018-04-11T01:43:30.281Z,8.47
2018-04-11T01:45:58.484Z,6.93
2018-04-11T01:48:26.689Z,7.07
2018-04-11T01:50:55.204Z,6.97
2018-04-11T01:53:24.172Z,7.17
2018-04-11T01:55:52.876Z,6.63
2018-04-11T01:58:21.084Z,7.70
2018-04-11T02:00:49.289Z,6.97
2018-04-11T02:03:18.004Z,7.20
2018-04-11T02:05:46.475Z,8.00
2018-04-11T02:08:14.809Z,7.53
2018-04-11T02:10:43.193Z,7.33
2018-04-11T02:13:11.406Z,7.90
2018-04-11T02:15:39.700Z,7.73
2018-04-11T02:18:08.387Z,7.97
2018-04-11T02:20:36.601Z,10.20
2018-04-11T02:23:05.611Z,9.20
2018-04-11T02:25:33.833Z,9.50
2018-04-11T02:28:02.438Z,9.70
2018-04-11T02:30:31.871Z,10.90
2018-04-11T02:33:00.337Z,10.03
2018-04-11T02:35:28.553Z,10.03
2018-04-11T02:37:57.808Z,9.77
2018-04-11T02:40:26.012Z,9.83
2018-04-11T02:42:54.328Z,11.10
2018-04-11T02:45:22.568Z,10.63
2018-04-11T02:47:50.974Z,10.37
2018-04-11T02:50:19.156Z,10.10
2018-04-11T02:52:47.544Z,10.13
2018-04-11T02:55:16.284Z,10.40
2018-04-11T02:57:44.503Z,11.80
2018-04-11T03:00:13.108Z,10.27
2018-04-11T03:02:42.412Z,10.27
2018-04-11T03:05:11.725Z,10.70
2018-04-11T03:07:40.237Z,11.47
2018-04-11T03:10:08.542Z,10.43
2018-04-11T03:12:36.755Z,10.63
2018-04-11T03:15:05.545Z,11.63
2018-04-11T03:17:35.058Z,11.80
2018-04-11T03:20:03.264Z,11.00
2018-04-11T03:22:31.472Z,11.33
2018-04-11T03:24:59.698Z,10.37
2018-04-11T03:27:27.918Z,10.37
2018-04-11T03:29:59.585Z,10.53
2018-04-11T03:32:28.260Z,11.20
2018-04-11T03:34:56.452Z,10.90
2018-04-11T03:37:24.664Z,11.57
2018-04-11T03:39:53.487Z,10.90
2018-04-11T03:42:21.709Z,10.40
2018-04-11T03:44:50.953Z,13.37
2018-04-11T03:47:19.184Z,11.10
2018-04-11T03:49:48.172Z,12.17
2018-04-11T03:52:17.379Z,10.67
2018-04-11T03:54:46.396Z,11.10
2018-04-11T03:57:21.536Z,9.40
2018-04-11T03:59:50.343Z,11.17
2018-04-11T04:02:18.893Z,11.00
2018-04-11T04:04:49.217Z,11.80
2018-04-11T04:07:17.624Z,11.00
2018-04-11T04:09:46.380Z,12.90
2018-04-11T04:12:14.593Z,12.17
2018-04-11T04:28:17.016Z,10.60
2018-04-11T04:30:46.236Z,10.23
2018-04-11T04:33:14.818Z,10.60
2018-04-11T04:35:43.035Z,12.33
2018-04-11T04:38:11.324Z,12.60
2018-04-11T04:40:39.549Z,10.70
2018-04-11T04:43:07.778Z,10.57
2018-04-11T04:45:37.312Z,11.47
2018-04-11T04:48:05.919Z,14.87
2018-04-11T04:50:34.394Z,11.40
2018-04-11T04:53:02.730Z,11.63
2018-04-11T04:55:31.565Z,11.93
2018-04-11T04:57:59.776Z,10.87
2018-04-11T05:00:27.984Z,11.60
2018-04-11T05:02:56.366Z,11.33
2018-04-11T05:05:24.572Z,11.70
2018-04-11T05:07:53.335Z,12.27
2018-04-11T05:10:22.923Z,12.63
2018-04-11T05:12:51.108Z,12.10
2018-04-11T05:15:19.449Z,12.73
2018-04-11T05:17:48.305Z,12.90
2018-04-11T05:20:17.297Z,11.60
2018-04-11T05:22:46.280Z,12.87
2018-04-11T05:25:15.285Z,10.77
2018-04-11T05:27:43.496Z,13.13
2018-04-11T05:30:12.356Z,11.47
2018-04-11T05:32:41.037Z,11.37
2018-04-11T05:35:09.508Z,11.77
2018-04-11T05:40:12.107Z,10.97
2018-04-11T05:42:40.284Z,12.53
2018-04-11T05:45:09.281Z,12.17
2018-04-11T05:47:37.847Z,11.20
2018-04-11T05:50:06.071Z,11.30
2018-04-11T05:52:38.944Z,11.00
2018-04-11T05:55:07.294Z,11.43
2018-04-11T05:57:35.514Z,11.20
2018-04-11T06:00:03.823Z,12.07
2018-04-11T06:02:32.541Z,11.10
2018-04-11T06:05:01.849Z,11.60
2018-04-11T06:07:30.916Z,10.97
2018-04-11T06:09:59.512Z,10.70
2018-04-11T06:12:27.732Z,10.70
2018-04-11T06:14:57.106Z,10.70
2018-04-11T06:17:29.241Z,10.60
2018-04-11T06:19:57.438Z,9.37
2018-04-11T06:22:25.652Z,10.10
2018-04-11T06:24:54.988Z,10.60
2018-04-11T06:27:23.198Z,10.90
2018-04-11T06:29:57.740Z,11.10
2018-04-11T06:32:31.341Z,11.60
2018-04-11T06:35:00.313Z,10.97
2018-04-11T06:37:28.526Z,10.00
2018-04-11T06:39:57.280Z,8.93
2018-04-11T06:42:25.481Z,8.90
2018-04-11T06:44:54.033Z,9.90
2018-04-11T06:47:22.298Z,9.87
2018-04-11T06:49:50.909Z,9.50
2018-04-11T06:52:20.600Z,10.17
2018-04-11T06:54:49.613Z,10.77
2018-04-11T06:57:18.947Z,10.30
2018-04-11T06:59:47.403Z,10.27
2018-04-11T07:02:16.285Z,10.00
2018-04-11T07:04:45.365Z,9.57
2018-04-11T07:07:14.021Z,10.00
2018-04-11T07:09:42.539Z,10.40
2018-04-11T07:12:11.669Z,12.40
2018-04-11T07:14:39.876Z,10.00
2018-04-11T07:17:08.421Z,9.73
2018-04-11T07:19:36.908Z,10.03
2018-04-11T07:22:05.370Z,8.23
2018-04-11T07:24:33.976Z,9.63
2018-04-11T07:27:02.220Z,11.10
2018-04-11T07:29:30.430Z,9.33
2018-04-11T07:31:58.925Z,8.17
2018-04-11T07:34:27.647Z,8.73
2018-04-11T07:36:55.829Z,9.70
2018-04-11T07:39:24.237Z,9.70
2018-04-11T07:41:53.644Z,9.00
2018-04-11T07:44:22.142Z,7.67
2018-04-11T07:46:50.860Z,7.20
2018-04-11T07:49:19.819Z,7.70
2018-04-11T07:51:48.032Z,7.40
2018-04-11T07:54:16.233Z,6.57
2018-04-11T07:56:44.924Z,7.50
2018-04-11T07:59:13.116Z,7.07
2018-04-11T08:01:43.142Z,6.43
2018-04-11T08:04:12.125Z,7.27
2018-04-11T08:06:40.333Z,6.93
2018-04-11T08:09:14.337Z,8.23
2018-04-11T08:11:42.546Z,8.70
2018-04-11T08:14:10.765Z,8.57
2018-04-11T08:16:39.008Z,7.70
2018-04-11T08:19:07.266Z,9.77
2018-04-11T08:21:35.468Z,9.13
2018-04-11T08:24:03.189Z,8.70
2018-04-11T08:26:31.464Z,7.97
2018-04-11T08:28:59.665Z,6.20
2018-04-11T08:31:28.632Z,6.73
2018-04-11T08:33:57.912Z,6.90
2018-04-11T08:36:27.589Z,6.90
2018-04-11T08:39:00.196Z,7.43
2018-04-11T08:41:29.359Z,7.17
2018-04-11T08:43:57.544Z,6.90
2018-04-11T08:46:26.280Z,7.00
2018-04-11T08:48:55.296Z,7.37
2018-04-11T08:51:23.799Z,7.40
2018-04-11T08:53:51.989Z,6.70
2018-04-11T08:56:20.711Z,6.47
2018-04-11T08:58:49.001Z,6.50
2018-04-11T09:01:17.577Z,6.63
2018-04-11T09:03:46.877Z,6.00
2018-04-11T09:06:15.805Z,5.80
2018-04-11T09:08:44.229Z,5.43
2018-04-11T09:11:12.808Z,5.60
2018-04-11T09:13:41.000Z,5.97
2018-04-11T09:16:09.621Z,6.20
2018-04-11T09:18:38.247Z,5.73
2018-04-11T09:21:08.185Z,5.60
2018-04-11T09:23:37.839Z,4.60
2018-04-11T09:26:07.204Z,5.00
2018-04-11T09:28:35.333Z,5.97
2018-04-11T09:31:03.824Z,5.00
2018-04-11T09:33:32.753Z,4.10
2018-04-11T09:36:00.969Z,3.60
2018-04-11T09:38:29.489Z,3.90
2018-04-11T09:40:57.689Z,2.77
2018-04-11T09:43:26.461Z,2.00
2018-04-11T09:45:55.441Z,2.20
2018-04-11T09:48:23.632Z,2.43
2018-04-11T09:50:52.622Z,2.33
2018-04-11T09:53:21.594Z,2.27
2018-04-11T09:55:50.101Z,2.70
2018-04-11T09:58:18.317Z,2.20
2018-04-11T10:00:52.497Z,2.10
2018-04-11T10:03:22.884Z,1.30
2018-04-11T10:05:51.305Z,1.40
2018-04-11T10:08:20.789Z,1.13
2018-04-11T10:10:49.509Z,1.40
2018-04-11T10:13:17.794Z,1.30
2018-04-11T10:15:46.071Z,1.40
2018-04-11T10:18:14.390Z,1.80
2018-04-11T10:20:42.591Z,2.27
2018-04-11T10:23:10.804Z,1.73
2018-04-11T10:25:39.877Z,2.93
2018-04-11T10:28:08.430Z,3.20
2018-04-11T10:30:37.146Z,3.40
2018-04-11T10:33:06.521Z,2.83
2018-04-11T10:35:35.014Z,2.80
2018-04-11T10:38:03.697Z,3.00
2018-04-11T10:40:31.960Z,2.90
2018-04-11T10:43:00.353Z,3.40
2018-04-11T10:45:28.550Z,2.83
2018-04-11T10:47:56.759Z,2.93
2018-04-11T10:50:25.611Z,2.73
2018-04-11T10:52:57.896Z,2.47
2018-04-11T10:55:27.364Z,2.77
2018-04-11T10:57:57.017Z,2.83
2018-04-11T11:00:25.772Z,2.70
2018-04-11T11:02:54.148Z,2.77
2018-04-11T11:05:22.749Z,2.20
2018-04-11T11:07:51.024Z,2.00
2018-04-11T11:10:20.337Z,2.27
2018-04-11T11:12:49.436Z,1.93
2018-04-11T11:15:18.414Z,2.60
2018-04-11T11:17:47.010Z,2.57
2018-04-11T11:20:16.068Z,2.23
2018-04-11T11:22:45.290Z,2.20
2018-04-11T11:25:13.669Z,2.87
2018-04-11T11:27:41.868Z,2.80
2018-04-11T11:30:10.971Z,2.87
2018-04-11T11:32:45.446Z,2.93
2018-04-11T11:35:13.651Z,2.60
2018-04-11T11:37:47.297Z,3.37
2018-04-11T11:40:15.944Z,3.40
2018-04-11T11:42:44.612Z,2.53
2018-04-11T11:45:12.822Z,2.60
2018-04-11T11:47:41.913Z,2.83
2018-04-11T11:50:10.277Z,3.08
2018-04-11T11:52:39.345Z,2.47
2018-04-11T11:55:08.316Z,2.37
2018-04-11T11:57:36.531Z,2.47
2018-04-11T12:00:04.727Z,2.00
2018-04-11T12:02:33.341Z,1.93
2018-04-11T12:05:01.579Z,2.30
2018-04-11T12:07:30.352Z,1.80
2018-04-11T12:09:58.845Z,2.67
2018-04-11T12:12:27.813Z,2.10
2018-04-11T12:14:56.782Z,2.03
2018-04-11T12:17:25.360Z,2.60
2018-04-11T12:19:53.576Z,2.23
2018-04-11T12:22:21.785Z,2.53
2018-04-11T12:24:51.081Z,2.27
2018-04-11T12:27:19.291Z,2.00
2018-04-11T12:29:47.660Z,1.90
2018-04-11T12:32:16.837Z,2.20
2018-04-11T12:34:46.117Z,2.37
2018-04-11T12:37:14.794Z,2.07
2018-04-11T12:39:43.285Z,2.00
2018-04-11T12:42:11.977Z,2.03
2018-04-11T12:44:40.231Z,1.93
2018-04-11T12:47:08.488Z,1.90
2018-04-11T12:49:40.204Z,2.10
2018-04-11T12:52:09.305Z,2.30
2018-04-11T12:54:37.504Z,1.73
2018-04-11T12:57:06.265Z,1.90
2018-04-11T12:59:35.198Z,2.10
2018-04-11T13:02:03.957Z,2.40
2018-04-11T13:04:33.068Z,1.83
2018-04-11T13:07:01.286Z,1.60
2018-04-11T13:09:29.704Z,1.83
2018-04-11T13:11:58.000Z,1.70
2018-04-11T13:14:26.202Z,1.60
2018-04-11T13:16:56.596Z,1.60
2018-04-11T13:19:24.865Z,1.63
2018-04-11T13:21:53.071Z,1.77
2018-04-11T13:24:21.278Z,1.60
2018-04-11T13:26:49.478Z,2.00
2018-04-11T13:29:18.332Z,2.00
2018-04-11T13:31:46.840Z,1.50
2018-04-11T13:34:16.223Z,1.50
2018-04-11T13:36:44.414Z,1.63
2018-04-11T13:39:13.012Z,1.90
2018-04-11T13:41:42.245Z,1.73
2018-04-11T13:44:10.840Z,1.90
2018-04-11T13:46:39.050Z,1.80
2018-04-11T13:49:07.840Z,1.40
2018-04-11T13:51:36.346Z,1.83
2018-04-11T13:54:04.604Z,1.70
2018-04-11T13:56:32.880Z,1.70
2018-04-11T13:59:01.699Z,1.60
2018-04-11T14:01:31.017Z,1.60
2018-04-11T14:03:59.760Z,2.23
2018-04-11T14:06:27.969Z,1.93
2018-04-11T14:08:56.553Z,1.37
2018-04-11T14:11:25.504Z,1.47
2018-04-11T14:13:53.724Z,1.70
2018-04-11T14:16:21.929Z,2.00
2018-04-11T14:18:50.437Z,1.80
2018-04-11T14:21:18.645Z,1.90
2018-04-11T14:23:47.627Z,1.47
2018-04-11T14:26:16.289Z,1.50
2018-04-11T14:28:44.497Z,1.60
2018-04-11T14:31:20.435Z,1.80
2018-04-11T14:33:49.154Z,1.40
2018-04-11T14:36:18.133Z,1.57
2018-04-11T14:38:47.628Z,1.90
2018-04-11T14:41:16.518Z,1.27
2018-04-11T14:43:45.190Z,1.37
2018-04-11T14:46:13.390Z,1.73
2018-04-11T14:48:42.367Z,1.80
2018-04-11T14:51:11.200Z,1.63
2018-04-11T14:53:39.525Z,2.00
2018-04-11T14:56:08.365Z,1.30
2018-04-11T14:58:37.385Z,2.03
2018-04-11T15:01:05.584Z,1.50
2018-04-11T15:03:34.391Z,1.80
2018-04-11T15:06:02.599Z,1.90
2018-04-11T15:08:30.893Z,1.70
2018-04-11T15:10:59.422Z,1.80
2018-04-11T15:13:27.634Z,2.00
2018-04-11T15:15:56.619Z,1.90
2018-04-11T15:18:25.184Z,1.80
2018-04-11T15:20:53.432Z,1.50
2018-04-11T15:23:24.745Z,1.40
2018-04-11T15:25:52.989Z,1.37
2018-04-11T15:28:27.895Z,1.40
2018-04-11T15:30:56.506Z,1.30
2018-04-11T15:33:24.985Z,1.60
2018-04-11T15:35:53.183Z,2.30
2018-04-11T15:38:21.738Z,1.30
2018-04-11T15:40:50.323Z,1.13
2018-04-11T15:43:18.543Z,1.27
2018-04-11T15:45:46.743Z,1.17
2018-04-11T15:48:15.041Z,1.47
2018-04-11T15:50:43.924Z,1.00
2018-04-11T15:53:12.845Z,1.37
2018-04-11T15:55:43.004Z,1.20
2018-04-11T15:58:11.236Z,1.90
2018-04-11T16:00:39.442Z,1.40
2018-04-11T16:03:08.621Z,1.67
2018-04-11T16:05:37.606Z,1.37
2018-04-11T16:08:06.391Z,1.23
2018-04-11T16:10:35.299Z,1.20
2018-04-11T16:13:04.432Z,1.60
2018-04-11T16:15:33.616Z,1.70
2018-04-11T16:18:03.162Z,1.50
2018-04-11T16:20:31.506Z,1.30
2018-04-11T16:23:00.862Z,1.47
2018-04-11T16:25:29.302Z,1.63
2018-04-11T16:27:57.932Z,1.50
2018-04-11T16:30:27.123Z,2.23
2018-04-11T16:33:00.868Z,1.60
2018-04-11T16:35:29.836Z,1.27
2018-04-11T16:37:58.405Z,1.60
2018-04-11T16:40:26.608Z,1.20
2018-04-11T16:42:55.573Z,1.60
2018-04-11T16:45:24.457Z,1.17
2018-04-11T16:47:53.086Z,1.87
2018-04-11T16:50:22.538Z,1.43
2018-04-11T16:52:50.756Z,1.20
2018-04-11T16:55:20.058Z,1.70
2018-04-11T16:57:49.028Z,1.50
2018-04-11T17:00:19.314Z,1.37
2018-04-11T17:02:47.955Z,1.30
2018-04-11T17:05:16.200Z,1.30
2018-04-11T17:07:44.769Z,1.20
2018-04-11T17:10:13.838Z,1.20
2018-04-11T17:12:42.792Z,1.70
2018-04-11T17:15:11.005Z,0.97
2018-04-11T17:17:39.680Z,1.47
2018-04-11T17:20:08.262Z,1.57
2018-04-11T17:22:48.286Z,1.37
2018-04-11T17:25:29.200Z,1.50
2018-04-11T17:28:09.161Z,1.40
2018-04-11T17:30:51.035Z,1.90
2018-04-11T17:33:20.744Z,1.87
2018-04-11T17:35:50.025Z,1.73
2018-04-11T17:38:18.716Z,2.10
2018-04-11T17:40:47.223Z,1.40
2018-04-11T17:43:16.193Z,1.60
2018-04-11T17:45:44.401Z,1.90
2018-04-11T17:48:13.261Z,3.70
2018-04-11T17:50:42.085Z,1.60
2018-04-11T17:53:10.297Z,1.30
2018-04-11T17:55:39.117Z,1.30
2018-04-11T17:58:08.016Z,1.40
2018-04-11T18:00:37.008Z,1.60
2018-04-11T18:03:05.804Z,1.73
2018-04-11T18:05:34.773Z,1.97
2018-04-11T18:08:03.916Z,1.97
2018-04-11T18:10:33.004Z,1.70
2018-04-11T18:13:02.197Z,1.60
2018-04-11T18:15:31.604Z,1.60
2018-04-11T18:18:00.742Z,1.80
2018-04-11T18:20:28.956Z,1.70
2018-04-11T18:22:57.172Z,1.83
2018-04-11T18:25:25.817Z,1.73
2018-04-11T18:27:54.132Z,1.83
2018-04-11T18:30:23.642Z,2.00
2018-04-11T18:33:06.245Z,1.90
2018-04-11T18:35:34.796Z,1.97
2018-04-11T18:38:03.190Z,1.53
2018-04-11T18:40:32.221Z,1.60
2018-04-11T18:43:00.736Z,1.50
2018-04-11T18:45:29.864Z,2.10
2018-04-11T18:47:58.841Z,1.97
2018-04-11T18:50:28.408Z,2.00
2018-04-11T18:52:57.307Z,2.23
2018-04-11T18:55:26.014Z,2.10
2018-04-11T18:57:54.208Z,1.70
2018-04-11T19:00:22.426Z,1.97
2018-04-11T19:02:51.049Z,3.63
2018-04-11T19:05:19.242Z,2.10
2018-04-11T19:07:48.163Z,2.80
2018-04-11T19:10:17.449Z,2.63
2018-04-11T19:12:46.846Z,3.00
2018-04-11T19:15:15.827Z,2.50
2018-04-11T19:17:44.484Z,2.80
2018-04-11T19:20:13.117Z,2.43
2018-04-11T19:22:42.092Z,3.00
2018-04-11T19:25:10.332Z,2.90
2018-04-11T19:27:39.576Z,2.67
2018-04-11T19:30:08.642Z,2.27
2018-04-11T19:32:36.832Z,2.40
2018-04-11T19:35:05.324Z,3.37
2018-04-11T19:37:33.530Z,2.90
2018-04-11T19:40:03.008Z,2.60
2018-04-11T19:42:31.212Z,3.00
2018-04-11T19:45:00.188Z,3.23
2018-04-11T19:47:33.421Z,3.00
2018-04-11T19:50:01.794Z,3.93
2018-04-11T19:52:29.993Z,2.97
2018-04-11T19:55:01.610Z,3.60
2018-04-11T19:57:29.819Z,3.70
2018-04-11T19:59:58.026Z,4.07
2018-04-11T20:02:26.644Z,3.53
2018-04-11T20:04:56.373Z,4.67
2018-04-11T20:07:25.165Z,4.33
2018-04-11T20:09:54.021Z,3.93
2018-04-11T20:12:23.308Z,3.80
2018-04-11T20:14:51.551Z,3.97
2018-04-11T20:17:21.980Z,4.20
2018-04-11T20:19:50.181Z,4.10
2018-04-11T20:22:18.397Z,4.40
2018-04-11T20:24:46.626Z,4.60
2018-04-11T20:27:14.837Z,5.10
2018-04-11T20:29:43.864Z,4.20
2018-04-11T20:32:12.609Z,4.73
2018-04-11T20:34:40.912Z,5.17
2018-04-11T20:37:09.113Z,4.80
2018-04-11T20:39:37.391Z,4.30
2018-04-11T20:42:05.592Z,4.27
2018-04-11T20:44:33.813Z,5.57
2018-04-11T20:47:02.258Z,5.37
2018-04-11T20:49:30.461Z,4.80
2018-04-11T20:51:59.841Z,5.20
2018-04-11T20:54:28.044Z,4.70
2018-04-11T20:56:56.792Z,5.50
2018-04-11T20:59:24.965Z,6.70
2018-04-11T21:01:53.613Z,5.23
2018-04-11T21:04:21.821Z,6.83
2018-04-11T21:06:50.016Z,6.33
2018-04-11T21:09:18.891Z,6.60
2018-04-11T21:11:47.060Z,7.57
2018-04-11T21:14:15.637Z,7.10
2018-04-11T21:16:44.632Z,7.43
2018-04-11T21:19:13.232Z,7.07
2018-04-11T21:21:41.499Z,6.43
2018-04-11T21:24:09.705Z,6.33
2018-04-11T21:26:37.911Z,7.77
2018-04-11T21:29:06.121Z,7.77
2018-04-11T21:31:34.885Z,7.73
2018-04-11T21:34:03.604Z,7.60
2018-04-11T21:36:33.165Z,7.70
2018-04-11T21:39:01.950Z,8.33
2018-04-11T21:41:31.141Z,8.60
2018-04-11T21:43:59.364Z,8.50
2018-04-11T21:46:28.001Z,7.53
2018-04-11T21:48:56.979Z,9.30
2018-04-11T21:51:25.813Z,9.37
2018-04-11T21:53:54.012Z,9.13
2018-04-11T21:56:22.568Z,9.10
2018-04-11T21:58:50.789Z,10.00
2018-04-11T22:01:19.005Z,9.63
2018-04-11T22:03:47.392Z,9.07
2018-04-11T22:06:16.481Z,9.50
2018-04-11T22:08:45.104Z,9.00
2018-04-11T22:11:13.769Z,8.80
2018-04-11T22:13:41.969Z,8.60
2018-04-11T22:16:10.181Z,9.53
2018-04-11T22:18:38.522Z,9.33
2018-04-11T22:21:06.732Z,9.10
2018-04-11T22:23:35.032Z,8.17
2018-04-11T22:26:03.617Z,9.17
2018-04-11T22:28:32.593Z,9.70
2018-04-11T22:31:01.129Z,10.20
2018-04-11T22:33:29.635Z,9.27
2018-04-11T22:35:57.845Z,9.30
2018-04-11T22:38:27.134Z,8.97
2018-04-11T22:40:55.354Z,10.80
2018-04-11T22:43:23.568Z,9.50
2018-04-11T22:45:52.380Z,9.60
2018-04-11T22:48:21.362Z,9.30
2018-04-11T22:50:49.974Z,10.90
2018-04-11T22:53:18.968Z,9.50
2018-04-11T22:55:47.797Z,10.13
2018-04-11T22:58:16.008Z,10.03
2018-04-11T23:00:44.231Z,9.77
2018-04-11T23:03:12.717Z,9.53
2018-04-11T23:05:40.921Z,9.53
2018-04-11T23:08:09.546Z,11.50
2018-04-11T23:10:38.837Z,9.30
2018-04-11T23:13:07.817Z,10.43
2018-04-11T23:15:36.032Z,10.40
2018-04-11T23:18:04.828Z,10.60
2018-04-11T23:20:33.585Z,9.93
2018-04-11T23:23:02.563Z,9.67
2018-04-11T23:25:30.777Z,11.07
2018-04-11T23:27:58.992Z,10.10
2018-04-11T23:30:27.577Z,10.07
2018-04-11T23:32:55.789Z,9.40
2018-04-11T23:35:24.741Z,9.43
2018-04-11T23:37:53.381Z,10.10
2018-04-11T23:40:22.363Z,10.47
2018-04-11T23:42:50.572Z,9.00
2018-04-11T23:45:18.796Z,10.33
2018-04-11T23:47:47.024Z,9.37
2018-04-11T23:50:15.819Z,9.93
2018-04-11T23:52:44.078Z,10.30
2018-04-11T23:55:12.977Z,10.77
2018-04-11T23:57:41.461Z,9.83
